sensor_id;sensor_type;location;lat;lon;timestamp;pressure;altitude;pressure_sealevel;temperature;humidity
15932;BME280;8065;49.520;11.284;2023-03-14T00:01:38;95739.16;;;13.52;87.36
15932;BME280;8065;49.520;11.284;2023-03-14T00:04:06;95742.22;;;13.57;87.06
15932;BME280;8065;49.520;11.284;2023-03-14T00:06:34;95747.56;;;13.61;87.29
15932;BME280;8065;49.520;11.284;2023-03-14T00:09:01;95748.31;;;13.51;87.18
15932;BME280;8065;49.520;11.284;2023-03-14T00:11:28;95743.38;;;13.53;87.44
15932;BME280;8065;49.520;11.284;2023-03-14T00:13:55;95752.13;;;13.50;87.27
15932;BME280;8065;49.520;11.284;2023-03-14T00:16:21;95752.88;;;13.43;87.27
15932;BME280;8065;49.520;11.284;2023-03-14T00:18:48;95757.41;;;13.28;87.87
15932;BME280;8065;49.520;11.284;2023-03-14T00:21:16;95759.72;;;13.33;87.04
15932;BME280;8065;49.520;11.284;2023-03-14T00:23:43;95764.66;;;13.35;86.94
15932;BME280;8065;49.520;11.284;2023-03-14T00:26:12;95769.25;;;13.41;86.89
15932;BME280;8065;49.520;11.284;2023-03-14T00:28:39;95773.81;;;13.37;86.58
15932;BME280;8065;49.520;11.284;2023-03-14T00:31:07;95774.19;;;13.32;86.90
15932;BME280;8065;49.520;11.284;2023-03-14T00:33:35;95779.41;;;13.04;87.20
15932;BME280;8065;49.520;11.284;2023-03-14T00:36:03;95789.75;;;13.16;87.22
15932;BME280;8065;49.520;11.284;2023-03-14T00:38:32;95784.09;;;13.28;86.60
15932;BME280;8065;49.520;11.284;2023-03-14T00:40:59;95798.16;;;13.18;86.60
15932;BME280;8065;49.520;11.284;2023-03-14T00:43:28;95816.84;;;13.25;86.59
15932;BME280;8065;49.520;11.284;2023-03-14T00:45:55;95810.38;;;13.26;86.42
15932;BME280;8065;49.520;11.284;2023-03-14T00:48:22;95815.31;;;13.21;86.73
15932;BME280;8065;49.520;11.284;2023-03-14T00:50:49;95822.19;;;13.25;86.16
15932;BME280;8065;49.520;11.284;2023-03-14T00:53:15;95819.50;;;13.25;86.33
15932;BME280;8065;49.520;11.284;2023-03-14T00:55:44;95815.72;;;13.26;85.64
15932;BME280;8065;49.520;11.284;2023-03-14T00:58:12;95831.34;;;13.28;85.92
15932;BME280;8065;49.520;11.284;2023-03-14T01:00:40;95844.22;;;13.15;86.35
15932;BME280;8065;49.520;11.284;2023-03-14T01:03:07;95843.91;;;13.24;85.58
15932;BME280;8065;49.520;11.284;2023-03-14T01:05:34;95852.63;;;13.17;85.73
15932;BME280;8065;49.520;11.284;2023-03-14T01:08:02;95845.78;;;13.23;85.10
15932;BME280;8065;49.520;11.284;2023-03-14T01:10:28;95825.53;;;13.15;85.75
15932;BME280;8065;49.520;11.284;2023-03-14T01:12:56;95822.53;;;13.20;85.48
15932;BME280;8065;49.520;11.284;2023-03-14T01:15:23;95818.38;;;13.26;85.42
15932;BME280;8065;49.520;11.284;2023-03-14T01:17:49;95811.50;;;13.22;85.40
15932;BME280;8065;49.520;11.284;2023-03-14T01:20:16;95794.75;;;13.25;85.16
15932;BME280;8065;49.520;11.284;2023-03-14T01:22:44;95788.63;;;13.17;85.84
15932;BME280;8065;49.520;11.284;2023-03-14T01:25:12;95784.47;;;13.27;85.09
15932;BME280;8065;49.520;11.284;2023-03-14T01:27:39;95787.72;;;12.85;87.31
15932;BME280;8065;49.520;11.284;2023-03-14T01:30:09;95765.66;;;13.02;86.63
15932;BME280;8065;49.520;11.284;2023-03-14T01:32:36;95759.28;;;13.17;85.95
15932;BME280;8065;49.520;11.284;2023-03-14T01:35:03;95761.94;;;13.17;85.83
15932;BME280;8065;49.520;11.284;2023-03-14T01:37:30;95748.91;;;13.05;86.78
15932;BME280;8065;49.520;11.284;2023-03-14T01:39:57;95737.13;;;12.99;87.15
15932;BME280;8065;49.520;11.284;2023-03-14T01:42:23;95732.16;;;13.08;86.80
15932;BME280;8065;49.520;11.284;2023-03-14T01:44:52;95747.34;;;12.83;87.51
15932;BME280;8065;49.520;11.284;2023-03-14T01:47:20;95749.63;;;12.80;88.16
15932;BME280;8065;49.520;11.284;2023-03-14T01:49:49;95757.31;;;13.00;87.16
15932;BME280;8065;49.520;11.284;2023-03-14T01:52:18;95743.56;;;13.01;87.41
15932;BME280;8065;49.520;11.284;2023-03-14T01:54:50;95741.69;;;13.09;87.16
15932;BME280;8065;49.520;11.284;2023-03-14T01:57:20;95748.53;;;13.06;86.85
15932;BME280;8065;49.520;11.284;2023-03-14T01:59:52;95755.00;;;12.95;87.33
15932;BME280;8065;49.520;11.284;2023-03-14T02:02:21;95761.13;;;13.13;86.89
15932;BME280;8065;49.520;11.284;2023-03-14T02:04:51;95772.19;;;13.15;86.55
15932;BME280;8065;49.520;11.284;2023-03-14T02:07:20;95774.88;;;13.15;86.75
15932;BME280;8065;49.520;11.284;2023-03-14T02:09:49;95779.41;;;13.11;87.18
15932;BME280;8065;49.520;11.284;2023-03-14T02:12:17;95771.44;;;13.14;86.79
15932;BME280;8065;49.520;11.284;2023-03-14T02:14:44;95769.53;;;13.15;86.98
15932;BME280;8065;49.520;11.284;2023-03-14T02:17:14;95772.25;;;13.19;86.73
15932;BME280;8065;49.520;11.284;2023-03-14T02:19:56;95765.38;;;13.18;86.78
15932;BME280;8065;49.520;11.284;2023-03-14T02:22:24;95765.78;;;13.23;86.65
15932;BME280;8065;49.520;11.284;2023-03-14T02:24:57;95762.72;;;13.21;87.18
15932;BME280;8065;49.520;11.284;2023-03-14T02:27:28;95752.81;;;13.25;87.08
15932;BME280;8065;49.520;11.284;2023-03-14T02:29:57;95745.56;;;13.22;86.77
15932;BME280;8065;49.520;11.284;2023-03-14T02:32:26;95742.88;;;13.15;87.52
15932;BME280;8065;49.520;11.284;2023-03-14T02:34:56;95733.00;;;13.26;87.40
15932;BME280;8065;49.520;11.284;2023-03-14T02:37:25;95736.06;;;13.21;87.02
15932;BME280;8065;49.520;11.284;2023-03-14T02:39:54;95740.63;;;13.21;87.29
15932;BME280;8065;49.520;11.284;2023-03-14T02:42:21;95738.34;;;13.23;86.93
15932;BME280;8065;49.520;11.284;2023-03-14T02:44:51;95736.00;;;13.14;87.84
15932;BME280;8065;49.520;11.284;2023-03-14T02:47:22;95728.38;;;13.09;88.36
15932;BME280;8065;49.520;11.284;2023-03-14T02:49:57;95726.06;;;13.07;88.17
15932;BME280;8065;49.520;11.284;2023-03-14T02:52:27;95724.56;;;13.10;87.71
15932;BME280;8065;49.520;11.284;2023-03-14T02:54:54;95719.22;;;13.10;88.07
15932;BME280;8065;49.520;11.284;2023-03-14T02:57:20;95718.44;;;13.06;88.42
15932;BME280;8065;49.520;11.284;2023-03-14T02:59:47;95715.00;;;13.02;88.18
15932;BME280;8065;49.520;11.284;2023-03-14T03:02:15;95710.06;;;13.04;87.88
15932;BME280;8065;49.520;11.284;2023-03-14T03:04:41;95706.28;;;13.08;88.32
15932;BME280;8065;49.520;11.284;2023-03-14T03:07:08;95697.88;;;13.06;88.33
15932;BME280;8065;49.520;11.284;2023-03-14T03:09:34;95706.25;;;12.98;88.58
15932;BME280;8065;49.520;11.284;2023-03-14T03:12:01;95705.47;;;13.01;88.33
15932;BME280;8065;49.520;11.284;2023-03-14T03:14:28;95694.06;;;12.97;88.23
15932;BME280;8065;49.520;11.284;2023-03-14T03:16:54;95704.75;;;12.97;87.99
15932;BME280;8065;49.520;11.284;2023-03-14T03:19:22;95709.28;;;12.93;88.53
15932;BME280;8065;49.520;11.284;2023-03-14T03:21:49;95711.59;;;12.94;87.92
15932;BME280;8065;49.520;11.284;2023-03-14T03:24:15;95703.56;;;12.87;88.63
15932;BME280;8065;49.520;11.284;2023-03-14T03:26:42;95703.97;;;12.93;88.27
15932;BME280;8065;49.520;11.284;2023-03-14T03:29:08;95700.91;;;12.91;87.76
15932;BME280;8065;49.520;11.284;2023-03-14T03:31:36;95694.00;;;12.79;88.46
15932;BME280;8065;49.520;11.284;2023-03-14T03:34:03;95686.41;;;12.85;88.05
15932;BME280;8065;49.520;11.284;2023-03-14T03:36:31;95685.25;;;12.78;87.98
15932;BME280;8065;49.520;11.284;2023-03-14T03:38:58;95682.63;;;12.86;87.90
15932;BME280;8065;49.520;11.284;2023-03-14T03:41:24;95681.47;;;12.83;87.16
15932;BME280;8065;49.520;11.284;2023-03-14T03:43:51;95674.97;;;12.77;87.30
15932;BME280;8065;49.520;11.284;2023-03-14T03:46:19;95682.59;;;12.78;87.91
15932;BME280;8065;49.520;11.284;2023-03-14T03:48:45;95687.56;;;12.84;87.44
15932;BME280;8065;49.520;11.284;2023-03-14T03:51:13;95681.81;;;12.74;87.51
15932;BME280;8065;49.520;11.284;2023-03-14T03:53:41;95685.97;;;12.68;87.85
15932;BME280;8065;49.520;11.284;2023-03-14T03:56:09;95665.06;;;12.77;87.08
15932;BME280;8065;49.520;11.284;2023-03-14T03:58:35;95681.09;;;12.85;87.10
15932;BME280;8065;49.520;11.284;2023-03-14T04:01:04;95684.88;;;12.76;86.73
15932;BME280;8065;49.520;11.284;2023-03-14T04:03:31;95677.28;;;12.82;86.96
15932;BME280;8065;49.520;11.284;2023-03-14T04:05:58;95665.09;;;12.81;86.79
15932;BME280;8065;49.520;11.284;2023-03-14T04:08:25;95663.56;;;12.84;86.29
15932;BME280;8065;49.520;11.284;2023-03-14T04:10:55;95655.16;;;12.78;86.41
15932;BME280;8065;49.520;11.284;2023-03-14T04:13:22;95648.31;;;12.73;86.50
15932;BME280;8065;49.520;11.284;2023-03-14T04:15:49;95642.97;;;12.73;85.75
15932;BME280;8065;49.520;11.284;2023-03-14T04:18:16;95631.19;;;12.74;85.93
15932;BME280;8065;49.520;11.284;2023-03-14T04:20:43;95639.53;;;12.69;85.94
15932;BME280;8065;49.520;11.284;2023-03-14T04:23:09;95622.38;;;12.63;86.06
15932;BME280;8065;49.520;11.284;2023-03-14T04:25:36;95624.69;;;12.65;85.46
15932;BME280;8065;49.520;11.284;2023-03-14T04:28:04;95629.66;;;12.73;85.75
15932;BME280;8065;49.520;11.284;2023-03-14T04:30:31;95620.88;;;12.66;85.63
15932;BME280;8065;49.520;11.284;2023-03-14T04:32:57;95625.03;;;12.60;85.38
15932;BME280;8065;49.520;11.284;2023-03-14T04:35:24;95608.69;;;12.65;85.81
15932;BME280;8065;49.520;11.284;2023-03-14T04:37:50;95617.84;;;12.67;85.30
15932;BME280;8065;49.520;11.284;2023-03-14T04:40:17;95619.72;;;12.63;85.92
15932;BME280;8065;49.520;11.284;2023-03-14T04:42:44;95612.50;;;12.67;85.56
15932;BME280;8065;49.520;11.284;2023-03-14T04:45:12;95610.59;;;12.64;85.82
15932;BME280;8065;49.520;11.284;2023-03-14T04:47:38;95627.69;;;12.53;85.79
15932;BME280;8065;49.520;11.284;2023-03-14T04:50:05;95632.63;;;12.54;86.04
15932;BME280;8065;49.520;11.284;2023-03-14T04:52:32;95621.59;;;12.56;86.38
15932;BME280;8065;49.520;11.284;2023-03-14T04:54:58;95619.28;;;12.51;86.10
15932;BME280;8065;49.520;11.284;2023-03-14T04:57:25;95622.34;;;12.49;86.17
15932;BME280;8065;49.520;11.284;2023-03-14T04:59:51;95625.78;;;12.53;86.44
15932;BME280;8065;49.520;11.284;2023-03-14T05:02:19;95629.97;;;12.54;86.06
15932;BME280;8065;49.520;11.284;2023-03-14T05:04:46;95630.31;;;12.42;86.48
15932;BME280;8065;49.520;11.284;2023-03-14T05:07:12;95630.69;;;12.44;86.41
15932;BME280;8065;49.520;11.284;2023-03-14T05:09:39;95633.75;;;12.46;86.05
15932;BME280;8065;49.520;11.284;2023-03-14T05:12:06;95634.88;;;12.41;86.28
15932;BME280;8065;49.520;11.284;2023-03-14T05:14:33;95637.97;;;12.54;85.67
15932;BME280;8065;49.520;11.284;2023-03-14T05:17:00;95643.69;;;12.56;85.45
15932;BME280;8065;49.520;11.284;2023-03-14T05:19:28;95636.03;;;12.51;85.96
15932;BME280;8065;49.520;11.284;2023-03-14T05:21:54;95626.16;;;12.52;85.98
15932;BME280;8065;49.520;11.284;2023-03-14T05:24:21;95617.78;;;12.53;85.71
15932;BME280;8065;49.520;11.284;2023-03-14T05:26:47;95617.78;;;12.53;86.05
15932;BME280;8065;49.520;11.284;2023-03-14T05:29:14;95621.59;;;12.52;85.86
15932;BME280;8065;49.520;11.284;2023-03-14T05:31:40;95613.97;;;12.47;85.95
15932;BME280;8065;49.520;11.284;2023-03-14T05:34:07;95605.56;;;12.45;86.00
15932;BME280;8065;49.520;11.284;2023-03-14T05:36:35;95603.28;;;12.40;85.66
15932;BME280;8065;49.520;11.284;2023-03-14T05:39:02;95607.44;;;12.37;85.83
15932;BME280;8065;49.520;11.284;2023-03-14T05:41:28;95606.31;;;12.42;86.01
15932;BME280;8065;49.520;11.284;2023-03-14T05:43:55;95601.03;;;12.49;85.29
15932;BME280;8065;49.520;11.284;2023-03-14T05:46:21;95592.22;;;12.38;85.94
15932;BME280;8065;49.520;11.284;2023-03-14T05:48:48;95593.38;;;12.40;86.05
15932;BME280;8065;49.520;11.284;2023-03-14T05:51:14;95588.44;;;12.39;85.81
15932;BME280;8065;49.520;11.284;2023-03-14T05:53:42;95592.22;;;12.38;86.32
15932;BME280;8065;49.520;11.284;2023-03-14T05:56:09;95583.06;;;12.32;86.26
15932;BME280;8065;49.520;11.284;2023-03-14T05:58:35;95585.75;;;12.32;85.80
15932;BME280;8065;49.520;11.284;2023-03-14T06:01:04;95582.34;;;12.42;86.07
15932;BME280;8065;49.520;11.284;2023-03-14T06:03:32;95586.53;;;12.39;85.80
15932;BME280;8065;49.520;11.284;2023-03-14T06:05:58;95585.00;;;12.35;86.23
15932;BME280;8065;49.520;11.284;2023-03-14T06:08:25;95588.84;;;12.44;85.91
15932;BME280;8065;49.520;11.284;2023-03-14T06:10:53;95585.75;;;12.39;85.75
15932;BME280;8065;49.520;11.284;2023-03-14T06:13:20;95589.97;;;12.40;85.78
15932;BME280;8065;49.520;11.284;2023-03-14T06:15:47;95588.81;;;12.41;86.11
15932;BME280;8065;49.520;11.284;2023-03-14T06:18:13;95581.19;;;12.39;85.90
15932;BME280;8065;49.520;11.284;2023-03-14T06:20:40;95593.75;;;12.35;86.25
15932;BME280;8065;49.520;11.284;2023-03-14T06:23:08;95584.22;;;12.34;86.05
15932;BME280;8065;49.520;11.284;2023-03-14T06:25:35;95592.63;;;12.40;86.06
15932;BME280;8065;49.520;11.284;2023-03-14T06:28:03;95589.56;;;12.38;86.01
15932;BME280;8065;49.520;11.284;2023-03-14T06:30:30;95585.78;;;12.46;86.18
15932;BME280;8065;49.520;11.284;2023-03-14T06:32:57;95587.69;;;12.42;85.71
15932;BME280;8065;49.520;11.284;2023-03-14T06:35:23;95587.31;;;12.47;86.12
15932;BME280;8065;49.520;11.284;2023-03-14T06:37:50;95578.56;;;12.43;85.94
15932;BME280;8065;49.520;11.284;2023-03-14T06:40:16;95591.50;;;12.48;86.00
15932;BME280;8065;49.520;11.284;2023-03-14T06:42:43;95589.59;;;12.48;86.21
15932;BME280;8065;49.520;11.284;2023-03-14T06:45:11;95596.44;;;12.42;86.12
15932;BME280;8065;49.520;11.284;2023-03-14T06:47:38;95589.59;;;12.45;86.10
15932;BME280;8065;49.520;11.284;2023-03-14T06:50:06;95588.00;;;12.30;86.68
15932;BME280;8065;49.520;11.284;2023-03-14T06:52:33;95589.22;;;12.43;86.22
15932;BME280;8065;49.520;11.284;2023-03-14T06:55:00;95597.22;;;12.50;85.98
15932;BME280;8065;49.520;11.284;2023-03-14T06:57:26;95586.56;;;12.50;86.00
15932;BME280;8065;49.520;11.284;2023-03-14T06:59:53;95591.91;;;12.54;85.75
15932;BME280;8065;49.520;11.284;2023-03-14T07:02:21;95599.13;;;12.50;85.90
15932;BME280;8065;49.520;11.284;2023-03-14T07:04:48;95605.63;;;12.59;85.80
15932;BME280;8065;49.520;11.284;2023-03-14T07:07:15;95607.91;;;12.57;85.76
15932;BME280;8065;49.520;11.284;2023-03-14T07:09:41;95596.09;;;12.51;85.98
15932;BME280;8065;49.520;11.284;2023-03-14T07:12:08;95613.97;;;12.54;86.17
15932;BME280;8065;49.520;11.284;2023-03-14T07:14:34;95603.31;;;12.51;85.76
15932;BME280;8065;49.520;11.284;2023-03-14T07:17:01;95589.25;;;12.54;85.44
15932;BME280;8065;49.520;11.284;2023-03-14T07:19:29;95597.56;;;12.41;85.58
15932;BME280;8065;49.520;11.284;2023-03-14T07:21:55;95594.22;;;12.62;85.62
15932;BME280;8065;49.520;11.284;2023-03-14T07:24:22;95591.94;;;12.64;85.60
15932;BME280;8065;49.520;11.284;2023-03-14T07:26:49;95598.41;;;12.63;85.03
15932;BME280;8065;49.520;11.284;2023-03-14T07:29:15;95594.22;;;12.69;85.30
15932;BME280;8065;49.520;11.284;2023-03-14T07:31:42;95589.66;;;12.70;85.25
15932;BME280;8065;49.520;11.284;2023-03-14T07:34:08;95587.78;;;12.74;84.83
15932;BME280;8065;49.520;11.284;2023-03-14T07:36:36;95591.22;;;12.82;84.49
15932;BME280;8065;49.520;11.284;2023-03-14T07:39:03;95587.00;;;12.77;84.85
15932;BME280;8065;49.520;11.284;2023-03-14T07:41:30;95588.16;;;12.83;84.77
15932;BME280;8065;49.520;11.284;2023-03-14T07:43:56;95596.50;;;12.67;84.87
15932;BME280;8065;49.520;11.284;2023-03-14T07:46:23;95596.53;;;12.78;84.84
15932;BME280;8065;49.520;11.284;2023-03-14T07:48:49;95593.50;;;12.83;83.91
15932;BME280;8065;49.520;11.284;2023-03-14T07:51:16;95591.97;;;12.86;83.82
15932;BME280;8065;49.520;11.284;2023-03-14T07:53:44;95596.94;;;12.84;84.00
15932;BME280;8065;49.520;11.284;2023-03-14T07:56:11;95602.25;;;12.76;84.31
15932;BME280;8065;49.520;11.284;2023-03-14T07:58:37;95592.38;;;12.88;83.92
15932;BME280;8065;49.520;11.284;2023-03-14T08:01:04;95590.47;;;12.85;83.49
15932;BME280;8065;49.520;11.284;2023-03-14T08:03:31;95589.72;;;12.95;83.21
15932;BME280;8065;49.520;11.284;2023-03-14T08:05:58;95588.94;;;12.87;82.89
15932;BME280;8065;49.520;11.284;2023-03-14T08:08:24;95600.34;;;12.73;83.49
15932;BME280;8065;49.520;11.284;2023-03-14T08:10:52;95611.78;;;12.85;82.69
15932;BME280;8065;49.520;11.284;2023-03-14T08:13:19;95599.25;;;12.99;82.05
15932;BME280;8065;49.520;11.284;2023-03-14T08:15:48;95593.13;;;13.06;82.10
15932;BME280;8065;49.520;11.284;2023-03-14T08:18:14;95601.13;;;13.13;81.28
15932;BME280;8065;49.520;11.284;2023-03-14T08:20:41;95604.59;;;13.17;81.15
15932;BME280;8065;49.520;11.284;2023-03-14T08:23:07;95596.59;;;13.31;80.30
15932;BME280;8065;49.520;11.284;2023-03-14T08:25:34;95598.13;;;13.43;80.08
15932;BME280;8065;49.520;11.284;2023-03-14T08:28:02;95597.34;;;13.60;79.67
15932;BME280;8065;49.520;11.284;2023-03-14T08:30:29;95596.19;;;13.61;79.79
15932;BME280;8065;49.520;11.284;2023-03-14T08:32:56;95590.47;;;13.70;79.55
15932;BME280;8065;49.520;11.284;2023-03-14T08:35:23;95590.47;;;13.81;79.81
15932;BME280;8065;49.520;11.284;2023-03-14T08:37:50;95572.94;;;13.76;78.75
15932;BME280;8065;49.520;11.284;2023-03-14T08:40:17;95600.00;;;13.71;77.80
15932;BME280;8065;49.520;11.284;2023-03-14T08:42:44;95571.41;;;13.71;77.63
15932;BME280;8065;49.520;11.284;2023-03-14T08:45:15;95572.91;;;13.83;78.29
15932;BME280;8065;49.520;11.284;2023-03-14T08:47:42;95570.94;;;13.94;77.40
15932;BME280;8065;49.520;11.284;2023-03-14T08:50:10;95572.81;;;14.04;77.52
15932;BME280;8065;49.520;11.284;2023-03-14T08:52:37;95572.84;;;13.97;76.46
15932;BME280;8065;49.520;11.284;2023-03-14T08:55:06;95564.41;;;14.09;77.02
15932;BME280;8065;49.520;11.284;2023-03-14T08:57:33;95565.06;;;14.38;76.58
15932;BME280;8065;49.520;11.284;2023-03-14T08:59:59;95567.31;;;14.54;75.77
15932;BME280;8065;49.520;11.284;2023-03-14T09:02:27;95555.44;;;14.62;75.40
15932;BME280;8065;49.520;11.284;2023-03-14T09:04:54;95555.97;;;14.95;74.40
15932;BME280;8065;49.520;11.284;2023-03-14T09:07:21;95568.50;;;15.05;74.06
15932;BME280;8065;49.520;11.284;2023-03-14T09:09:47;95577.59;;;14.59;74.34
15932;BME280;8065;49.520;11.284;2023-03-14T09:12:14;95569.59;;;14.56;73.92
15932;BME280;8065;49.520;11.284;2023-03-14T09:14:41;95568.09;;;14.48;74.12
15932;BME280;8065;49.520;11.284;2023-03-14T09:17:07;95569.56;;;14.59;73.63
15932;BME280;8065;49.520;11.284;2023-03-14T09:19:35;95569.97;;;14.58;73.79
15932;BME280;8065;49.520;11.284;2023-03-14T09:22:02;95577.19;;;14.64;73.19
15932;BME280;8065;49.520;11.284;2023-03-14T09:24:28;95558.19;;;15.03;72.47
15932;BME280;8065;49.520;11.284;2023-03-14T09:26:55;95563.41;;;15.66;71.41
15932;BME280;8065;49.520;11.284;2023-03-14T09:29:22;95548.81;;;15.70;69.38
15932;BME280;8065;49.520;11.284;2023-03-14T09:31:49;95558.84;;;16.00;69.30
15932;BME280;8065;49.520;11.284;2023-03-14T09:34:16;95551.97;;;15.99;68.41
15932;BME280;8065;49.520;11.284;2023-03-14T09:36:44;95539.16;;;15.80;68.48
15932;BME280;8065;49.520;11.284;2023-03-14T09:39:10;95560.09;;;15.92;67.65
15932;BME280;8065;49.520;11.284;2023-03-14T09:41:39;95542.63;;;15.77;68.63
15932;BME280;8065;49.520;11.284;2023-03-14T09:44:11;95544.31;;;15.64;68.52
15932;BME280;8065;49.520;11.284;2023-03-14T09:46:41;95545.84;;;15.61;68.51
15932;BME280;8065;49.520;11.284;2023-03-14T09:49:11;95538.41;;;15.38;68.74
15932;BME280;8065;49.520;11.284;2023-03-14T09:51:41;95541.81;;;15.43;69.13
15932;BME280;8065;49.520;11.284;2023-03-14T09:54:21;95546.34;;;15.49;69.23
15932;BME280;8065;49.520;11.284;2023-03-14T09:56:51;95531.72;;;15.16;68.84
15932;BME280;8065;49.520;11.284;2023-03-14T09:59:18;95535.31;;;15.44;67.82
15932;BME280;8065;49.520;11.284;2023-03-14T10:01:44;95532.34;;;15.34;68.70
15932;BME280;8065;49.520;11.284;2023-03-14T10:04:15;95537.69;;;15.34;69.33
15932;BME280;8065;49.520;11.284;2023-03-14T10:06:45;95547.78;;;15.16;68.79
15932;BME280;8065;49.520;11.284;2023-03-14T10:09:18;95542.13;;;15.07;68.68
15932;BME280;8065;49.520;11.284;2023-03-14T10:11:54;95536.47;;;14.94;69.49
15932;BME280;8065;49.520;11.284;2023-03-14T10:14:32;95538.72;;;14.99;68.30
15932;BME280;8065;49.520;11.284;2023-03-14T10:17:06;95548.59;;;15.09;68.45
15932;BME280;8065;49.520;11.284;2023-03-14T10:19:35;95540.97;;;15.08;69.05
15932;BME280;8065;49.520;11.284;2023-03-14T10:22:03;95537.19;;;15.02;69.57
15932;BME280;8065;49.520;11.284;2023-03-14T10:24:33;95543.28;;;15.06;69.56
15932;BME280;8065;49.520;11.284;2023-03-14T10:27:02;95536.31;;;15.16;69.36
15932;BME280;8065;49.520;11.284;2023-03-14T10:29:29;95542.38;;;15.23;68.81
15932;BME280;8065;49.520;11.284;2023-03-14T10:31:59;95543.47;;;15.29;68.47
15932;BME280;8065;49.520;11.284;2023-03-14T10:34:28;95556.16;;;15.18;68.23
15932;BME280;8065;49.520;11.284;2023-03-14T10:36:57;95537.50;;;15.11;68.08
15932;BME280;8065;49.520;11.284;2023-03-14T10:39:28;95543.88;;;15.24;68.51
15932;BME280;8065;49.520;11.284;2023-03-14T10:42:05;95546.19;;;15.22;68.53
15932;BME280;8065;49.520;11.284;2023-03-14T10:44:33;95546.97;;;15.23;68.21
15932;BME280;8065;49.520;11.284;2023-03-14T10:47:02;95546.56;;;15.24;68.18
15932;BME280;8065;49.520;11.284;2023-03-14T10:49:31;95545.47;;;15.18;68.45
15932;BME280;8065;49.520;11.284;2023-03-14T10:52:01;95550.03;;;15.21;68.69
15932;BME280;8065;49.520;11.284;2023-03-14T10:54:30;95552.28;;;15.26;67.91
15932;BME280;8065;49.520;11.284;2023-03-14T10:56:57;95542.38;;;15.23;68.13
15932;BME280;8065;49.520;11.284;2023-03-14T10:59:27;95544.56;;;15.35;67.89
15932;BME280;8065;49.520;11.284;2023-03-14T11:01:57;95536.22;;;15.26;68.17
15932;BME280;8065;49.520;11.284;2023-03-14T11:04:42;95541.88;;;15.35;68.26
15932;BME280;8065;49.520;11.284;2023-03-14T11:07:16;95544.59;;;15.32;68.47
15932;BME280;8065;49.520;11.284;2023-03-14T11:09:49;95543.22;;;15.13;67.90
15932;BME280;8065;49.520;11.284;2023-03-14T11:12:33;95544.72;;;15.14;68.05
15932;BME280;8065;49.520;11.284;2023-03-14T11:15:12;95542.72;;;15.25;68.64
15932;BME280;8065;49.520;11.284;2023-03-14T11:17:46;95537.00;;;15.23;68.86
15932;BME280;8065;49.520;11.284;2023-03-14T11:20:33;95542.38;;;15.23;69.02
15932;BME280;8065;49.520;11.284;2023-03-14T11:23:06;95540.91;;;15.15;70.23
15932;BME280;8065;49.520;11.284;2023-03-14T11:25:40;95551.25;;;15.13;71.47
15932;BME280;8065;49.520;11.284;2023-03-14T11:28:16;95547.06;;;15.08;71.31
15932;BME280;8065;49.520;11.284;2023-03-14T11:30:50;95559.38;;;14.99;72.37
15932;BME280;8065;49.520;11.284;2023-03-14T11:33:21;95547.94;;;14.95;72.99
15932;BME280;8065;49.520;11.284;2023-03-14T11:35:55;95535.03;;;14.83;74.31
15932;BME280;8065;49.520;11.284;2023-03-14T11:38:29;95537.69;;;14.86;74.48
15932;BME280;8065;49.520;11.284;2023-03-14T11:40:58;95539.63;;;14.79;75.23
15932;BME280;8065;49.520;11.284;2023-03-14T11:43:29;95554.13;;;14.85;75.81
15932;BME280;8065;49.520;11.284;2023-03-14T11:46:03;95547.97;;;14.88;75.83
15932;BME280;8065;49.520;11.284;2023-03-14T11:48:38;95536.84;;;15.45;74.86
15932;BME280;8065;49.520;11.284;2023-03-14T11:51:12;95532.56;;;15.88;74.89
15932;BME280;8065;49.520;11.284;2023-03-14T11:53:47;95528.41;;;16.18;74.22
15932;BME280;8065;49.520;11.284;2023-03-14T11:56:19;95521.03;;;16.52;73.65
15932;BME280;8065;49.520;11.284;2023-03-14T11:58:54;95518.22;;;16.90;72.15
15932;BME280;8065;49.520;11.284;2023-03-14T12:01:33;95509.63;;;17.02;70.02
15932;BME280;8065;49.520;11.284;2023-03-14T12:04:05;95509.69;;;17.42;69.27
15932;BME280;8065;49.520;11.284;2023-03-14T12:06:41;95510.69;;;17.51;67.25
15932;BME280;8065;49.520;11.284;2023-03-14T12:09:13;95496.06;;;17.32;68.49
15932;BME280;8065;49.520;11.284;2023-03-14T12:11:44;95499.81;;;17.15;68.86
15932;BME280;8065;49.520;11.284;2023-03-14T12:14:19;95497.78;;;17.23;68.08
15932;BME280;8065;49.520;11.284;2023-03-14T12:16:49;95486.97;;;17.26;68.71
15932;BME280;8065;49.520;11.284;2023-03-14T12:19:28;95497.06;;;16.95;70.44
15932;BME280;8065;49.520;11.284;2023-03-14T12:21:58;95490.06;;;16.78;70.39
15932;BME280;8065;49.520;11.284;2023-03-14T12:24:28;95482.44;;;17.23;68.06
15932;BME280;8065;49.520;11.284;2023-03-14T12:26:56;95485.50;;;17.65;67.90
15932;BME280;8065;49.520;11.284;2023-03-14T12:29:24;95492.50;;;17.59;66.86
15932;BME280;8065;49.520;11.284;2023-03-14T12:34:46;95482.06;;;17.21;65.21
15932;BME280;8065;49.520;11.284;2023-03-14T12:37:37;95476.13;;;17.10;66.47
15932;BME280;8065;49.520;11.284;2023-03-14T12:40:18;95484.97;;;16.84;66.18
15932;BME280;8065;49.520;11.284;2023-03-14T12:42:56;95475.72;;;16.61;66.34
15932;BME280;8065;49.520;11.284;2023-03-14T12:45:27;95484.84;;;16.67;65.54
15932;BME280;8065;49.520;11.284;2023-03-14T12:47:56;95477.91;;;16.43;65.17
15932;BME280;8065;49.520;11.284;2023-03-14T12:50:36;95470.44;;;16.54;64.76
15932;BME280;8065;49.520;11.284;2023-03-14T12:53:27;95470.91;;;16.49;64.06
15932;BME280;8065;49.520;11.284;2023-03-14T12:56:02;95467.22;;;16.66;63.96
15932;BME280;8065;49.520;11.284;2023-03-14T12:58:35;95461.88;;;16.66;63.87
15932;BME280;8065;49.520;11.284;2023-03-14T13:01:05;95465.78;;;16.58;62.68
15932;BME280;8065;49.520;11.284;2023-03-14T13:03:40;95457.84;;;16.51;62.56
15932;BME280;8065;49.520;11.284;2023-03-14T13:06:11;95458.22;;;16.53;62.41
15932;BME280;8065;49.520;11.284;2023-03-14T13:08:40;95455.16;;;16.51;62.29
15932;BME280;8065;49.520;11.284;2023-03-14T13:11:10;95452.09;;;16.53;62.81